EGPD/ABZ METAR and TAF weather

Enter ICAO airport designator
Station Type Date Time Source
EGPD METAR 2022/08/13 11:50 UTC NOAA

EGPD 131150Z AUTO 13009KT 9999 NCD 21/12 Q1018 NOSIG


Station Type Date Time Source
EGPD Decoded METAR 2022/08/13 11:50 UTC NOAA

Aberdeen / Dyce, United Kingdom (EGPD) 57-12N 002-13W 0M
Aug 13, 2022 - 07:50 AM EDT / 2022.08.13 1150 UTC
Wind: from the SE (130 degrees) at 10 MPH (9 KT):0
Visibility: greater than 7 mile(s):0
Temperature: 69 F (21 C)
Dew Point: 53 F (12 C)
Relative Humidity: 56%
Pressure (altimeter): 30.06 in. Hg (1018 hPa)
ob: EGPD 131150Z AUTO 13009KT 9999 NCD 21/12 Q1018 NOSIG
cycle: 12

Station Type Date Time Source
EGPD TAF 2022/08/13 12:09 UTC NOAA

TAF EGPD 131058Z 1312/1412 15008KT CAVOK PROB30
TEMPO 1317/1320 BKN008
BECMG 1320/1323 BKN008
TEMPO 1321/1408 BKN006 PROB30
TEMPO 1400/1406 5000 BR OVC003
BECMG 1408/1411 FEW008

Example: see airport list